Stringtown, Illinois
Current Conditions -  °F | °C
As of 10:55 AM on Thursday 30 Oct 2014 (Local Time) from KSLO Reporting Station
Scattered Clouds Scattered Clouds  
Wind Chill: 54°   Ceiling: Unl
Heat Index: 54°   Visibility: 10mi
Dew Point: 41°   Wind: 7mph
Humidity: 62%   Direction: 170°S
Pressure: 30.15"   Gusts: NA
Location:  38.8463°N, 89.0894°W
Report Text: KSLO 301555Z AUTO 17006KT 10SM SCT090 12/05 A3015 RMK AO2 T01200049
Loading
Personal Weather Stations






























Interactive Weather Map
Tropical Storm Tracking
New forecast layout! Learn more

10-Day Weather Forecast

Advertisements
Track Severe Weather on mobile